sensor_id;sensor_type;location;lat;lon;timestamp;temperature;humidity
25512;DHT22;13414;44.534;18.700;2023-04-25T00:01:24;12.70;99.90
25512;DHT22;13414;44.534;18.700;2023-04-25T00:03:51;12.70;99.90
25512;DHT22;13414;44.534;18.700;2023-04-25T00:06:18;12.70;99.90
25512;DHT22;13414;44.534;18.700;2023-04-25T00:08:46;12.70;99.90
25512;DHT22;13414;44.534;18.700;2023-04-25T00:11:15;12.70;99.90
25512;DHT22;13414;44.534;18.700;2023-04-25T00:13:42;12.70;99.90
25512;DHT22;13414;44.534;18.700;2023-04-25T00:16:09;12.70;99.90
25512;DHT22;13414;44.534;18.700;2023-04-25T00:18:39;12.70;99.90
25512;DHT22;13414;44.534;18.700;2023-04-25T00:21:06;12.70;99.90
25512;DHT22;13414;44.534;18.700;2023-04-25T00:23:34;12.80;99.90
25512;DHT22;13414;44.534;18.700;2023-04-25T00:26:03;12.80;99.90
25512;DHT22;13414;44.534;18.700;2023-04-25T00:28:32;12.90;99.90
25512;DHT22;13414;44.534;18.700;2023-04-25T00:30:59;12.90;99.90
25512;DHT22;13414;44.534;18.700;2023-04-25T00:33:26;12.90;99.90
25512;DHT22;13414;44.534;18.700;2023-04-25T00:35:54;13.00;99.90
25512;DHT22;13414;44.534;18.700;2023-04-25T00:38:22;13.00;99.90
25512;DHT22;13414;44.534;18.700;2023-04-25T00:40:49;13.10;99.90
25512;DHT22;13414;44.534;18.700;2023-04-25T00:43:17;13.10;99.90
25512;DHT22;13414;44.534;18.700;2023-04-25T00:45:48;13.10;99.90
25512;DHT22;13414;44.534;18.700;2023-04-25T00:48:18;13.10;99.90
25512;DHT22;13414;44.534;18.700;2023-04-25T00:50:51;13.10;99.90
25512;DHT22;13414;44.534;18.700;2023-04-25T00:53:19;13.00;99.90
25512;DHT22;13414;44.534;18.700;2023-04-25T00:55:46;13.00;99.90
25512;DHT22;13414;44.534;18.700;2023-04-25T00:58:14;13.00;99.90
25512;DHT22;13414;44.534;18.700;2023-04-25T01:00:42;12.90;99.90
25512;DHT22;13414;44.534;18.700;2023-04-25T01:03:11;12.90;99.90
25512;DHT22;13414;44.534;18.700;2023-04-25T01:05:39;12.80;99.90
25512;DHT22;13414;44.534;18.700;2023-04-25T01:08:08;12.80;99.90
25512;DHT22;13414;44.534;18.700;2023-04-25T01:10:36;12.80;99.90
25512;DHT22;13414;44.534;18.700;2023-04-25T01:13:04;12.80;99.90
25512;DHT22;13414;44.534;18.700;2023-04-25T01:15:32;12.80;99.90
25512;DHT22;13414;44.534;18.700;2023-04-25T01:17:59;12.80;99.90
25512;DHT22;13414;44.534;18.700;2023-04-25T01:20:29;12.80;99.90
25512;DHT22;13414;44.534;18.700;2023-04-25T01:23:00;12.80;99.90
25512;DHT22;13414;44.534;18.700;2023-04-25T01:25:29;12.70;99.90
25512;DHT22;13414;44.534;18.700;2023-04-25T01:27:57;12.70;99.90
25512;DHT22;13414;44.534;18.700;2023-04-25T01:30:27;12.70;99.90
25512;DHT22;13414;44.534;18.700;2023-04-25T01:32:56;12.70;99.90
25512;DHT22;13414;44.534;18.700;2023-04-25T01:35:23;12.70;99.90
25512;DHT22;13414;44.534;18.700;2023-04-25T01:37:53;12.60;99.90
25512;DHT22;13414;44.534;18.700;2023-04-25T01:40:23;12.60;99.90
25512;DHT22;13414;44.534;18.700;2023-04-25T01:42:51;12.60;99.90
25512;DHT22;13414;44.534;18.700;2023-04-25T01:45:20;12.60;99.90
25512;DHT22;13414;44.534;18.700;2023-04-25T01:47:48;12.60;99.90
25512;DHT22;13414;44.534;18.700;2023-04-25T01:50:17;12.70;99.90
25512;DHT22;13414;44.534;18.700;2023-04-25T01:52:46;12.70;99.90
25512;DHT22;13414;44.534;18.700;2023-04-25T01:55:14;12.60;99.90
25512;DHT22;13414;44.534;18.700;2023-04-25T01:58:06;12.60;99.90
25512;DHT22;13414;44.534;18.700;2023-04-25T02:01:07;12.60;99.90
25512;DHT22;13414;44.534;18.700;2023-04-25T02:03:43;12.50;99.90
25512;DHT22;13414;44.534;18.700;2023-04-25T02:06:20;12.40;99.90
25512;DHT22;13414;44.534;18.700;2023-04-25T02:08:48;12.30;99.90
25512;DHT22;13414;44.534;18.700;2023-04-25T02:11:17;12.20;99.90
25512;DHT22;13414;44.534;18.700;2023-04-25T02:14:08;12.00;99.90
25512;DHT22;13414;44.534;18.700;2023-04-25T02:16:52;11.90;99.90
25512;DHT22;13414;44.534;18.700;2023-04-25T02:19:20;11.70;99.90
25512;DHT22;13414;44.534;18.700;2023-04-25T02:21:47;11.70;99.90
25512;DHT22;13414;44.534;18.700;2023-04-25T02:24:14;11.60;99.90
25512;DHT22;13414;44.534;18.700;2023-04-25T02:26:42;11.60;99.90
25512;DHT22;13414;44.534;18.700;2023-04-25T02:29:11;11.60;99.90
25512;DHT22;13414;44.534;18.700;2023-04-25T02:31:38;11.60;99.90
25512;DHT22;13414;44.534;18.700;2023-04-25T02:34:06;11.60;99.90
25512;DHT22;13414;44.534;18.700;2023-04-25T02:36:36;11.50;99.90
25512;DHT22;13414;44.534;18.700;2023-04-25T02:39:03;11.50;99.90
25512;DHT22;13414;44.534;18.700;2023-04-25T02:41:31;11.50;99.90
25512;DHT22;13414;44.534;18.700;2023-04-25T02:43:58;11.40;99.90
25512;DHT22;13414;44.534;18.700;2023-04-25T02:46:27;11.20;99.90
25512;DHT22;13414;44.534;18.700;2023-04-25T02:48:54;11.20;99.90
25512;DHT22;13414;44.534;18.700;2023-04-25T02:51:22;11.10;99.90
25512;DHT22;13414;44.534;18.700;2023-04-25T02:53:49;11.10;99.90
25512;DHT22;13414;44.534;18.700;2023-04-25T02:56:17;11.00;99.90
25512;DHT22;13414;44.534;18.700;2023-04-25T02:58:44;10.90;99.90
25512;DHT22;13414;44.534;18.700;2023-04-25T03:01:12;10.90;99.90
25512;DHT22;13414;44.534;18.700;2023-04-25T03:03:41;10.90;99.90
25512;DHT22;13414;44.534;18.700;2023-04-25T03:06:08;10.90;99.90
25512;DHT22;13414;44.534;18.700;2023-04-25T03:08:36;10.90;99.90
25512;DHT22;13414;44.534;18.700;2023-04-25T03:11:04;10.80;99.90
25512;DHT22;13414;44.534;18.700;2023-04-25T03:13:31;10.90;99.90
25512;DHT22;13414;44.534;18.700;2023-04-25T03:15:59;10.80;99.90
25512;DHT22;13414;44.534;18.700;2023-04-25T03:18:26;10.80;99.90
25512;DHT22;13414;44.534;18.700;2023-04-25T03:20:56;10.80;99.90
25512;DHT22;13414;44.534;18.700;2023-04-25T03:23:23;10.80;99.90
25512;DHT22;13414;44.534;18.700;2023-04-25T03:25:51;10.70;99.90
25512;DHT22;13414;44.534;18.700;2023-04-25T03:28:19;10.70;99.90
25512;DHT22;13414;44.534;18.700;2023-04-25T03:30:47;10.70;99.90
25512;DHT22;13414;44.534;18.700;2023-04-25T03:33:14;10.70;99.90
25512;DHT22;13414;44.534;18.700;2023-04-25T03:35:42;10.70;99.90
25512;DHT22;13414;44.534;18.700;2023-04-25T03:38:11;10.70;99.90
25512;DHT22;13414;44.534;18.700;2023-04-25T03:40:40;10.70;99.90
25512;DHT22;13414;44.534;18.700;2023-04-25T03:43:24;10.70;99.90
25512;DHT22;13414;44.534;18.700;2023-04-25T03:45:57;10.60;99.90
25512;DHT22;13414;44.534;18.700;2023-04-25T03:48:25;10.60;99.90
25512;DHT22;13414;44.534;18.700;2023-04-25T03:50:54;10.60;99.90
25512;DHT22;13414;44.534;18.700;2023-04-25T03:53:23;10.50;99.90
25512;DHT22;13414;44.534;18.700;2023-04-25T03:56:17;10.50;99.90
25512;DHT22;13414;44.534;18.700;2023-04-25T03:58:46;10.50;99.90
25512;DHT22;13414;44.534;18.700;2023-04-25T04:01:17;10.50;99.90
25512;DHT22;13414;44.534;18.700;2023-04-25T04:03:45;10.50;99.90
25512;DHT22;13414;44.534;18.700;2023-04-25T04:06:12;10.50;99.90
25512;DHT22;13414;44.534;18.700;2023-04-25T04:08:45;10.50;99.90
25512;DHT22;13414;44.534;18.700;2023-04-25T04:11:13;10.40;99.90
25512;DHT22;13414;44.534;18.700;2023-04-25T04:13:41;10.40;99.90
25512;DHT22;13414;44.534;18.700;2023-04-25T04:16:09;10.40;99.90
25512;DHT22;13414;44.534;18.700;2023-04-25T04:18:37;10.50;99.90
25512;DHT22;13414;44.534;18.700;2023-04-25T04:21:40;10.40;99.90
25512;DHT22;13414;44.534;18.700;2023-04-25T04:24:11;10.40;99.90
25512;DHT22;13414;44.534;18.700;2023-04-25T04:27:07;10.40;99.90
25512;DHT22;13414;44.534;18.700;2023-04-25T04:29:46;10.40;99.90
25512;DHT22;13414;44.534;18.700;2023-04-25T04:32:25;10.50;99.90
25512;DHT22;13414;44.534;18.700;2023-04-25T04:34:54;10.50;99.90
25512;DHT22;13414;44.534;18.700;2023-04-25T04:37:23;10.50;99.90
25512;DHT22;13414;44.534;18.700;2023-04-25T04:39:52;10.50;99.90
25512;DHT22;13414;44.534;18.700;2023-04-25T04:42:27;10.50;99.90
25512;DHT22;13414;44.534;18.700;2023-04-25T04:45:21;10.50;99.90
25512;DHT22;13414;44.534;18.700;2023-04-25T04:48:17;10.50;99.90
25512;DHT22;13414;44.534;18.700;2023-04-25T04:51:04;10.50;99.90
25512;DHT22;13414;44.534;18.700;2023-04-25T04:53:50;10.60;99.90
25512;DHT22;13414;44.534;18.700;2023-04-25T04:56:37;10.60;99.90
25512;DHT22;13414;44.534;18.700;2023-04-25T04:59:16;10.60;99.90
25512;DHT22;13414;44.534;18.700;2023-04-25T05:02:10;10.70;99.90
25512;DHT22;13414;44.534;18.700;2023-04-25T05:05:00;10.70;99.90
25512;DHT22;13414;44.534;18.700;2023-04-25T05:07:46;10.70;99.90
25512;DHT22;13414;44.534;18.700;2023-04-25T05:10:31;10.70;99.90
25512;DHT22;13414;44.534;18.700;2023-04-25T05:13:20;10.80;99.90
25512;DHT22;13414;44.534;18.700;2023-04-25T05:16:03;10.80;99.90
25512;DHT22;13414;44.534;18.700;2023-04-25T05:18:39;10.80;99.90
25512;DHT22;13414;44.534;18.700;2023-04-25T05:21:22;10.70;99.90
25512;DHT22;13414;44.534;18.700;2023-04-25T05:24:08;10.70;99.90
25512;DHT22;13414;44.534;18.700;2023-04-25T05:27:17;10.80;99.90
25512;DHT22;13414;44.534;18.700;2023-04-25T05:30:21;10.80;99.90
25512;DHT22;13414;44.534;18.700;2023-04-25T05:32:58;10.90;99.90
25512;DHT22;13414;44.534;18.700;2023-04-25T05:35:27;11.00;99.90
25512;DHT22;13414;44.534;18.700;2023-04-25T05:37:55;11.10;99.90
25512;DHT22;13414;44.534;18.700;2023-04-25T05:40:35;11.20;99.90
25512;DHT22;13414;44.534;18.700;2023-04-25T05:43:17;11.20;99.90
25512;DHT22;13414;44.534;18.700;2023-04-25T05:46:03;11.40;99.90
25512;DHT22;13414;44.534;18.700;2023-04-25T05:48:41;11.50;99.90
25512;DHT22;13414;44.534;18.700;2023-04-25T05:51:20;11.50;99.90
25512;DHT22;13414;44.534;18.700;2023-04-25T05:54:17;11.70;99.90
25512;DHT22;13414;44.534;18.700;2023-04-25T05:56:45;11.90;99.90
25512;DHT22;13414;44.534;18.700;2023-04-25T05:59:12;12.10;99.90
25512;DHT22;13414;44.534;18.700;2023-04-25T06:01:41;12.20;99.90
25512;DHT22;13414;44.534;18.700;2023-04-25T06:04:09;12.40;99.90
25512;DHT22;13414;44.534;18.700;2023-04-25T06:06:38;12.60;99.90
25512;DHT22;13414;44.534;18.700;2023-04-25T06:09:05;12.70;99.90
25512;DHT22;13414;44.534;18.700;2023-04-25T06:11:33;12.80;99.90
25512;DHT22;13414;44.534;18.700;2023-04-25T06:14:00;12.90;99.90
25512;DHT22;13414;44.534;18.700;2023-04-25T06:16:30;13.10;99.90
25512;DHT22;13414;44.534;18.700;2023-04-25T06:18:58;13.20;99.90
25512;DHT22;13414;44.534;18.700;2023-04-25T06:21:27;13.40;99.90
25512;DHT22;13414;44.534;18.700;2023-04-25T06:23:54;13.40;99.90
25512;DHT22;13414;44.534;18.700;2023-04-25T06:26:23;13.50;99.90
25512;DHT22;13414;44.534;18.700;2023-04-25T06:28:51;13.50;99.90
25512;DHT22;13414;44.534;18.700;2023-04-25T06:31:19;13.70;99.90
25512;DHT22;13414;44.534;18.700;2023-04-25T06:33:50;13.80;99.90
25512;DHT22;13414;44.534;18.700;2023-04-25T06:36:22;13.80;99.90
25512;DHT22;13414;44.534;18.700;2023-04-25T06:38:53;13.80;99.90
25512;DHT22;13414;44.534;18.700;2023-04-25T06:41:21;14.00;99.90
25512;DHT22;13414;44.534;18.700;2023-04-25T06:43:48;14.30;99.90
25512;DHT22;13414;44.534;18.700;2023-04-25T06:46:24;14.60;99.90
25512;DHT22;13414;44.534;18.700;2023-04-25T06:48:53;14.70;99.90
25512;DHT22;13414;44.534;18.700;2023-04-25T06:51:22;14.70;99.90
25512;DHT22;13414;44.534;18.700;2023-04-25T06:53:50;14.80;99.90
25512;DHT22;13414;44.534;18.700;2023-04-25T06:56:28;14.80;99.90
25512;DHT22;13414;44.534;18.700;2023-04-25T06:59:11;14.80;99.90
25512;DHT22;13414;44.534;18.700;2023-04-25T07:01:40;14.80;99.90
25512;DHT22;13414;44.534;18.700;2023-04-25T07:04:17;14.60;99.90
25512;DHT22;13414;44.534;18.700;2023-04-25T07:06:50;14.60;99.90
25512;DHT22;13414;44.534;18.700;2023-04-25T07:09:27;14.90;99.90
25512;DHT22;13414;44.534;18.700;2023-04-25T07:11:55;15.00;99.90
25512;DHT22;13414;44.534;18.700;2023-04-25T07:14:24;15.30;99.90
25512;DHT22;13414;44.534;18.700;2023-04-25T07:16:52;15.40;99.90
25512;DHT22;13414;44.534;18.700;2023-04-25T07:19:21;15.10;99.90
25512;DHT22;13414;44.534;18.700;2023-04-25T07:21:54;14.90;99.90
25512;DHT22;13414;44.534;18.700;2023-04-25T07:24:25;15.30;99.90
25512;DHT22;13414;44.534;18.700;2023-04-25T07:26:55;15.60;99.90
25512;DHT22;13414;44.534;18.700;2023-04-25T07:29:46;15.60;99.90
25512;DHT22;13414;44.534;18.700;2023-04-25T07:32:15;15.60;99.90
25512;DHT22;13414;44.534;18.700;2023-04-25T07:34:42;15.50;99.90
25512;DHT22;13414;44.534;18.700;2023-04-25T07:37:11;15.60;99.90
25512;DHT22;13414;44.534;18.700;2023-04-25T07:39:53;15.80;99.90
25512;DHT22;13414;44.534;18.700;2023-04-25T07:42:22;15.90;99.90
25512;DHT22;13414;44.534;18.700;2023-04-25T07:44:49;15.80;99.90
25512;DHT22;13414;44.534;18.700;2023-04-25T07:47:17;16.10;99.90
25512;DHT22;13414;44.534;18.700;2023-04-25T07:49:47;16.20;99.90
25512;DHT22;13414;44.534;18.700;2023-04-25T07:52:17;16.30;99.90
25512;DHT22;13414;44.534;18.700;2023-04-25T07:54:50;16.60;99.90
25512;DHT22;13414;44.534;18.700;2023-04-25T07:57:26;16.70;99.90
25512;DHT22;13414;44.534;18.700;2023-04-25T07:59:56;16.90;99.90
25512;DHT22;13414;44.534;18.700;2023-04-25T08:02:26;17.00;99.90
25512;DHT22;13414;44.534;18.700;2023-04-25T08:04:54;16.80;99.90
25512;DHT22;13414;44.534;18.700;2023-04-25T08:07:23;17.20;99.90
25512;DHT22;13414;44.534;18.700;2023-04-25T08:09:55;17.10;99.90
25512;DHT22;13414;44.534;18.700;2023-04-25T08:12:27;17.40;99.90
25512;DHT22;13414;44.534;18.700;2023-04-25T08:14:57;17.50;99.90
25512;DHT22;13414;44.534;18.700;2023-04-25T08:17:30;17.60;99.90
25512;DHT22;13414;44.534;18.700;2023-04-25T08:19:58;17.90;99.90
25512;DHT22;13414;44.534;18.700;2023-04-25T08:22:30;17.80;99.90
25512;DHT22;13414;44.534;18.700;2023-04-25T08:25:13;17.40;99.90
25512;DHT22;13414;44.534;18.700;2023-04-25T08:27:42;17.10;99.90
25512;DHT22;13414;44.534;18.700;2023-04-25T08:30:11;16.70;99.90
25512;DHT22;13414;44.534;18.700;2023-04-25T08:32:42;16.80;99.90
25512;DHT22;13414;44.534;18.700;2023-04-25T08:35:29;16.80;99.90
25512;DHT22;13414;44.534;18.700;2023-04-25T08:37:58;16.80;99.90
25512;DHT22;13414;44.534;18.700;2023-04-25T08:40:27;16.90;99.90
25512;DHT22;13414;44.534;18.700;2023-04-25T08:43:06;17.40;99.90
25512;DHT22;13414;44.534;18.700;2023-04-25T08:45:39;17.60;99.90
25512;DHT22;13414;44.534;18.700;2023-04-25T08:48:11;17.50;95.50
25512;DHT22;13414;44.534;18.700;2023-04-25T08:50:40;17.50;94.70
25512;DHT22;13414;44.534;18.700;2023-04-25T08:53:09;17.70;93.10
25512;DHT22;13414;44.534;18.700;2023-04-25T08:55:46;17.90;91.70
25512;DHT22;13414;44.534;18.700;2023-04-25T08:58:13;18.20;89.20
25512;DHT22;13414;44.534;18.700;2023-04-25T09:00:41;18.30;87.40
25512;DHT22;13414;44.534;18.700;2023-04-25T09:03:10;18.30;84.40
25512;DHT22;13414;44.534;18.700;2023-04-25T09:05:39;18.40;82.60
25512;DHT22;13414;44.534;18.700;2023-04-25T09:08:10;18.00;81.40
25512;DHT22;13414;44.534;18.700;2023-04-25T09:10:38;17.50;81.90
25512;DHT22;13414;44.534;18.700;2023-04-25T09:13:07;17.10;83.00
25512;DHT22;13414;44.534;18.700;2023-04-25T09:15:57;17.00;84.80
25512;DHT22;13414;44.534;18.700;2023-04-25T09:18:43;16.60;84.00
25512;DHT22;13414;44.534;18.700;2023-04-25T09:21:12;16.60;86.20
25512;DHT22;13414;44.534;18.700;2023-04-25T09:23:43;16.90;87.00
25512;DHT22;13414;44.534;18.700;2023-04-25T09:26:14;17.40;83.90
25512;DHT22;13414;44.534;18.700;2023-04-25T09:28:44;17.50;80.10
25512;DHT22;13414;44.534;18.700;2023-04-25T09:31:21;17.00;79.00
25512;DHT22;13414;44.534;18.700;2023-04-25T09:33:59;16.60;80.70
25512;DHT22;13414;44.534;18.700;2023-04-25T09:36:30;16.50;81.00
25512;DHT22;13414;44.534;18.700;2023-04-25T09:39:14;16.40;82.40
25512;DHT22;13414;44.534;18.700;2023-04-25T09:41:53;16.20;82.20
25512;DHT22;13414;44.534;18.700;2023-04-25T09:44:23;16.10;84.10
25512;DHT22;13414;44.534;18.700;2023-04-25T09:46:52;16.20;85.50
25512;DHT22;13414;44.534;18.700;2023-04-25T09:49:23;16.50;86.00
25512;DHT22;13414;44.534;18.700;2023-04-25T09:52:05;17.10;83.90
25512;DHT22;13414;44.534;18.700;2023-04-25T09:54:44;17.50;82.00
25512;DHT22;13414;44.534;18.700;2023-04-25T09:57:16;17.80;78.90
25512;DHT22;13414;44.534;18.700;2023-04-25T09:59:46;18.10;76.80
25512;DHT22;13414;44.534;18.700;2023-04-25T10:02:15;18.10;73.00
25512;DHT22;13414;44.534;18.700;2023-04-25T10:04:49;18.00;71.80
25512;DHT22;13414;44.534;18.700;2023-04-25T10:07:30;18.00;71.90
25512;DHT22;13414;44.534;18.700;2023-04-25T10:10:02;18.10;69.50
25512;DHT22;13414;44.534;18.700;2023-04-25T10:12:31;18.30;69.80
25512;DHT22;13414;44.534;18.700;2023-04-25T10:15:00;18.30;67.40
25512;DHT22;13414;44.534;18.700;2023-04-25T10:17:28;18.30;66.10
25512;DHT22;13414;44.534;18.700;2023-04-25T10:19:55;18.10;66.20
25512;DHT22;13414;44.534;18.700;2023-04-25T10:22:29;18.10;66.50
25512;DHT22;13414;44.534;18.700;2023-04-25T10:24:57;18.20;66.10
25512;DHT22;13414;44.534;18.700;2023-04-25T10:27:27;18.30;65.10
25512;DHT22;13414;44.534;18.700;2023-04-25T10:30:01;18.20;64.20
25512;DHT22;13414;44.534;18.700;2023-04-25T10:32:31;18.40;64.50
25512;DHT22;13414;44.534;18.700;2023-04-25T10:35:10;19.00;63.70
25512;DHT22;13414;44.534;18.700;2023-04-25T10:37:38;19.30;60.90
25512;DHT22;13414;44.534;18.700;2023-04-25T10:40:09;19.30;58.50
25512;DHT22;13414;44.534;18.700;2023-04-25T10:42:38;19.10;57.40
25512;DHT22;13414;44.534;18.700;2023-04-25T10:45:09;19.00;58.20
25512;DHT22;13414;44.534;18.700;2023-04-25T10:47:36;18.80;58.00
25512;DHT22;13414;44.534;18.700;2023-04-25T10:50:11;18.50;57.40
25512;DHT22;13414;44.534;18.700;2023-04-25T10:52:39;18.30;58.20
25512;DHT22;13414;44.534;18.700;2023-04-25T10:55:08;18.20;59.20
25512;DHT22;13414;44.534;18.700;2023-04-25T10:57:40;17.90;58.80
25512;DHT22;13414;44.534;18.700;2023-04-25T11:00:13;18.00;59.10
25512;DHT22;13414;44.534;18.700;2023-04-25T11:02:42;18.10;59.30
25512;DHT22;13414;44.534;18.700;2023-04-25T11:05:20;18.10;59.80
25512;DHT22;13414;44.534;18.700;2023-04-25T11:07:50;18.30;60.30
25512;DHT22;13414;44.534;18.700;2023-04-25T11:10:19;18.20;59.40
25512;DHT22;13414;44.534;18.700;2023-04-25T11:12:48;18.40;59.50
25512;DHT22;13414;44.534;18.700;2023-04-25T11:15:15;18.70;59.20
25512;DHT22;13414;44.534;18.700;2023-04-25T11:17:43;18.80;58.60
25512;DHT22;13414;44.534;18.700;2023-04-25T11:20:12;19.00;57.80
25512;DHT22;13414;44.534;18.700;2023-04-25T11:22:41;18.80;56.30
25512;DHT22;13414;44.534;18.700;2023-04-25T11:25:12;18.80;54.70
25512;DHT22;13414;44.534;18.700;2023-04-25T11:27:51;19.10;54.60
25512;DHT22;13414;44.534;18.700;2023-04-25T11:30:20;19.30;53.90
25512;DHT22;13414;44.534;18.700;2023-04-25T11:32:50;19.50;52.90
25512;DHT22;13414;44.534;18.700;2023-04-25T11:35:18;19.60;52.40
25512;DHT22;13414;44.534;18.700;2023-04-25T11:37:45;19.10;51.80
25512;DHT22;13414;44.534;18.700;2023-04-25T11:40:13;18.80;51.30
25512;DHT22;13414;44.534;18.700;2023-04-25T11:42:44;18.60;52.20
25512;DHT22;13414;44.534;18.700;2023-04-25T11:45:17;18.20;51.80
25512;DHT22;13414;44.534;18.700;2023-04-25T11:47:45;17.50;52.20
25512;DHT22;13414;44.534;18.700;2023-04-25T11:50:12;17.10;52.70
25512;DHT22;13414;44.534;18.700;2023-04-25T11:52:42;17.00;54.00
25512;DHT22;13414;44.534;18.700;2023-04-25T11:55:13;16.90;54.50
25512;DHT22;13414;44.534;18.700;2023-04-25T11:57:41;17.10;54.60
25512;DHT22;13414;44.534;18.700;2023-04-25T12:00:11;17.30;54.40
25512;DHT22;13414;44.534;18.700;2023-04-25T12:02:42;17.20;53.70
25512;DHT22;13414;44.534;18.700;2023-04-25T12:05:12;17.50;53.70
25512;DHT22;13414;44.534;18.700;2023-04-25T12:07:40;17.70;52.80
25512;DHT22;13414;44.534;18.700;2023-04-25T12:10:11;18.00;52.80
25512;DHT22;13414;44.534;18.700;2023-04-25T12:12:41;18.20;52.80
25512;DHT22;13414;44.534;18.700;2023-04-25T12:15:13;18.40;53.00
25512;DHT22;13414;44.534;18.700;2023-04-25T12:17:46;18.30;53.50
25512;DHT22;13414;44.534;18.700;2023-04-25T12:20:17;18.30;54.30
25512;DHT22;13414;44.534;18.700;2023-04-25T12:22:46;18.40;55.00
25512;DHT22;13414;44.534;18.700;2023-04-25T12:25:34;18.40;55.30
25512;DHT22;13414;44.534;18.700;2023-04-25T12:28:13;18.50;55.00
25512;DHT22;13414;44.534;18.700;2023-04-25T12:30:56;18.70;54.50
25512;DHT22;13414;44.534;18.700;2023-04-25T12:33:27;18.80;54.00
25512;DHT22;13414;44.534;18.700;2023-04-25T12:35:55;18.70;53.30
25512;DHT22;13414;44.534;18.700;2023-04-25T12:38:27;18.60;53.60
25512;DHT22;13414;44.534;18.700;2023-04-25T12:40:55;18.50;53.50
25512;DHT22;13414;44.534;18.700;2023-04-25T12:43:23;18.30;53.80
25512;DHT22;13414;44.534;18.700;2023-04-25T12:45:50;18.30;54.00
25512;DHT22;13414;44.534;18.700;2023-04-25T12:48:19;18.00;54.50
25512;DHT22;13414;44.534;18.700;2023-04-25T12:50:49;17.90;55.20
25512;DHT22;13414;44.534;18.700;2023-04-25T12:53:19;18.00;55.30
25512;DHT22;13414;44.534;18.700;2023-04-25T12:55:47;18.40;55.50
25512;DHT22;13414;44.534;18.700;2023-04-25T12:58:14;18.80;54.70
25512;DHT22;13414;44.534;18.700;2023-04-25T13:00:43;19.10;54.80
25512;DHT22;13414;44.534;18.700;2023-04-25T13:03:11;19.40;53.20
25512;DHT22;13414;44.534;18.700;2023-04-25T13:05:39;19.60;51.80
25512;DHT22;13414;44.534;18.700;2023-04-25T13:08:08;19.80;51.70
25512;DHT22;13414;44.534;18.700;2023-04-25T13:10:35;20.20;51.50
25512;DHT22;13414;44.534;18.700;2023-04-25T13:13:04;20.30;51.30
25512;DHT22;13414;44.534;18.700;2023-04-25T13:15:32;20.30;49.40
25512;DHT22;13414;44.534;18.700;2023-04-25T13:17:59;20.10;49.00
25512;DHT22;13414;44.534;18.700;2023-04-25T13:20:27;19.40;50.00
25512;DHT22;13414;44.534;18.700;2023-04-25T13:22:54;19.50;51.00
25512;DHT22;13414;44.534;18.700;2023-04-25T13:25:23;19.60;50.80
25512;DHT22;13414;44.534;18.700;2023-04-25T13:27:51;19.30;50.40
25512;DHT22;13414;44.534;18.700;2023-04-25T13:30:22;19.40;51.00
25512;DHT22;13414;44.534;18.700;2023-04-25T13:32:49;19.60;49.90
25512;DHT22;13414;44.534;18.700;2023-04-25T13:35:18;19.20;50.00
25512;DHT22;13414;44.534;18.700;2023-04-25T13:37:45;19.30;50.40
25512;DHT22;13414;44.534;18.700;2023-04-25T13:40:13;19.40;50.50
25512;DHT22;13414;44.534;18.700;2023-04-25T13:42:42;19.60;50.30
25512;DHT22;13414;44.534;18.700;2023-04-25T13:45:11;19.90;49.90
25512;DHT22;13414;44.534;18.700;2023-04-25T13:47:38;19.60;50.40
25512;DHT22;13414;44.534;18.700;2023-04-25T13:50:07;19.10;50.30
25512;DHT22;13414;44.534;18.700;2023-04-25T13:52:35;19.00;50.90
25512;DHT22;13414;44.534;18.700;2023-04-25T13:55:03;18.70;50.90
25512;DHT22;13414;44.534;18.700;2023-04-25T13:57:33;18.70;51.50
25512;DHT22;13414;44.534;18.700;2023-04-25T14:00:04;18.60;51.10
25512;DHT22;13414;44.534;18.700;2023-04-25T14:02:34;18.50;51.20
25512;DHT22;13414;44.534;18.700;2023-04-25T14:05:02;18.50;51.90
25512;DHT22;13414;44.534;18.700;2023-04-25T14:07:30;18.60;52.10
25512;DHT22;13414;44.534;18.700;2023-04-25T14:09:57;18.50;52.00
25512;DHT22;13414;44.534;18.700;2023-04-25T14:12:25;18.30;51.90
25512;DHT22;13414;44.534;18.700;2023-04-25T14:14:52;18.20;52.10
25512;DHT22;13414;44.534;18.700;2023-04-25T14:17:21;18.20;52.40
25512;DHT22;13414;44.534;18.700;2023-04-25T14:19:50;18.40;52.30
25512;DHT22;13414;44.534;18.700;2023-04-25T14:22:23;18.40;52.10
25512;DHT22;13414;44.534;18.700;2023-04-25T14:24:51;18.40;51.20
25512;DHT22;13414;44.534;18.700;2023-04-25T14:27:19;18.50;50.90
25512;DHT22;13414;44.534;18.700;2023-04-25T14:29:46;18.70;51.00
25512;DHT22;13414;44.534;18.700;2023-04-25T14:32:14;18.90;50.40
25512;DHT22;13414;44.534;18.700;2023-04-25T14:34:44;19.00;50.10
25512;DHT22;13414;44.534;18.700;2023-04-25T14:37:11;19.00;50.10
25512;DHT22;13414;44.534;18.700;2023-04-25T14:39:39;19.20;49.70
25512;DHT22;13414;44.534;18.700;2023-04-25T14:42:06;19.30;49.50
25512;DHT22;13414;44.534;18.700;2023-04-25T14:44:33;19.40;48.70
25512;DHT22;13414;44.534;18.700;2023-04-25T14:47:01;19.30;48.20
25512;DHT22;13414;44.534;18.700;2023-04-25T14:49:28;19.30;48.50
25512;DHT22;13414;44.534;18.700;2023-04-25T14:51:57;19.10;48.60
25512;DHT22;13414;44.534;18.700;2023-04-25T14:54:25;19.20;48.10
25512;DHT22;13414;44.534;18.700;2023-04-25T14:56:52;18.90;46.90
25512;DHT22;13414;44.534;18.700;2023-04-25T14:59:19;18.70;47.30
25512;DHT22;13414;44.534;18.700;2023-04-25T15:01:47;18.50;50.10
25512;DHT22;13414;44.534;18.700;2023-04-25T15:04:14;18.20;51.50
25512;DHT22;13414;44.534;18.700;2023-04-25T15:06:45;18.00;52.70
25512;DHT22;13414;44.534;18.700;2023-04-25T15:09:14;17.80;53.30
25512;DHT22;13414;44.534;18.700;2023-04-25T15:11:42;17.80;54.50
25512;DHT22;13414;44.534;18.700;2023-04-25T15:14:09;17.70;54.70
25512;DHT22;13414;44.534;18.700;2023-04-25T15:16:37;17.70;54.50
25512;DHT22;13414;44.534;18.700;2023-04-25T15:19:04;17.70;54.50
25512;DHT22;13414;44.534;18.700;2023-04-25T15:21:32;17.50;54.60
25512;DHT22;13414;44.534;18.700;2023-04-25T15:23:59;17.30;55.20
25512;DHT22;13414;44.534;18.700;2023-04-25T15:26:28;17.20;55.80
25512;DHT22;13414;44.534;18.700;2023-04-25T15:28:56;17.00;56.60
25512;DHT22;13414;44.534;18.700;2023-04-25T15:31:24;16.90;56.80
25512;DHT22;13414;44.534;18.700;2023-04-25T15:33:51;16.70;57.20
25512;DHT22;13414;44.534;18.700;2023-04-25T15:36:19;16.70;56.90
25512;DHT22;13414;44.534;18.700;2023-04-25T15:38:47;16.70;57.60
25512;DHT22;13414;44.534;18.700;2023-04-25T15:41:17;16.70;57.80